Bay Islands (Utila), Honduras
Current Conditions -  °F | °C
As of 4:00 PM on Monday 26 Jan 2015 (Local Time) from MHLC Reporting Station
Light Rain Light Rain  
Wind Chill: 68°   Ceiling: 1800
Heat Index: 68°   Visibility: 2.5mi
Dew Point: 66°   Wind: 12mph
Humidity: 94%   Direction: 190°S
Pressure: 30.06"   Gusts: NA
Location:  16.1°N, 86.95°W
Report Text: MHLC 262200Z 19010KT 4000 -RA BKN018 OVC070 20/19 Q1018 A3008NOSIG
Loading
Personal Weather Stations






























Interactive Weather Map New forecast layout! Learn more

10-Day Weather Forecast

Advertisements
Track Severe Weather on mobile